createdAt,value
2022-11-09T00:05:16.038Z,956.98
2022-11-09T00:10:47.809Z,956.98
2022-11-09T00:21:51.856Z,957.02
2022-11-09T00:27:23.440Z,957.04
2022-11-09T00:32:55.241Z,956.98
2022-11-09T00:44:00.634Z,956.90
2022-11-09T00:49:34.998Z,956.88
2022-11-09T00:55:12.628Z,956.86
2022-11-09T01:00:44.172Z,956.84
2022-11-09T01:06:16.058Z,956.84
2022-11-09T01:22:51.260Z,956.86
2022-11-09T01:28:22.971Z,956.84
2022-11-09T01:39:26.579Z,956.80
2022-11-09T01:45:05.287Z,956.80
2022-11-09T01:50:42.836Z,956.84
2022-11-09T01:56:14.624Z,956.86
2022-11-09T02:01:48.125Z,956.86
2022-11-09T02:07:19.829Z,956.78
2022-11-09T02:12:57.251Z,956.80
2022-11-09T02:18:35.348Z,956.78
2022-11-09T02:24:13.225Z,956.78
2022-11-09T02:29:50.955Z,956.76
2022-11-09T02:35:22.785Z,956.74
2022-11-09T02:40:54.563Z,956.72
2022-11-09T02:46:26.436Z,956.70
2022-11-09T02:52:04.112Z,956.70
2022-11-09T02:57:35.674Z,956.72
2022-11-09T03:03:07.442Z,956.74
2022-11-09T03:08:39.238Z,956.69
2022-11-09T03:14:11.072Z,956.67
2022-11-09T03:19:42.848Z,956.67
2022-11-09T03:25:14.617Z,956.65
2022-11-09T03:30:46.816Z,956.69
2022-11-09T03:36:18.845Z,956.69
2022-11-09T03:41:50.532Z,956.67
2022-11-09T03:47:22.618Z,956.67
2022-11-09T03:53:00.368Z,956.65
2022-11-09T03:58:38.242Z,956.61
2022-11-09T04:04:10.333Z,956.61
2022-11-09T04:09:47.894Z,956.57
2022-11-09T04:15:19.824Z,956.59
2022-11-09T04:20:51.815Z,956.59
2022-11-09T04:26:24.024Z,956.47
2022-11-09T04:31:56.063Z,956.55
2022-11-09T04:37:33.821Z,956.57
2022-11-09T04:43:05.572Z,956.59
2022-11-09T04:48:37.457Z,956.59
2022-11-09T04:54:09.263Z,956.59
2022-11-09T04:59:46.951Z,956.61
2022-11-09T05:05:24.576Z,956.67
2022-11-09T05:10:58.417Z,956.69
2022-11-09T05:16:36.363Z,956.70
2022-11-09T05:22:08.299Z,956.69
2022-11-09T05:27:40.111Z,956.69
2022-11-09T05:33:11.624Z,956.69
2022-11-09T05:38:43.416Z,956.70
2022-11-09T05:44:21.142Z,956.70
2022-11-09T05:49:59.014Z,956.70
2022-11-09T05:55:36.719Z,956.72
2022-11-09T06:01:14.116Z,956.80
2022-11-09T06:06:51.627Z,956.88
2022-11-09T06:12:23.772Z,957.00
2022-11-09T06:18:01.101Z,957.14
2022-11-09T06:23:32.842Z,957.23
2022-11-09T06:29:04.344Z,957.33
2022-11-09T06:34:36.047Z,957.47
2022-11-09T06:40:07.679Z,957.61
2022-11-09T06:45:39.513Z,957.71
2022-11-09T06:51:17.185Z,957.82
2022-11-09T06:56:48.907Z,957.94
2022-11-09T07:02:20.786Z,958.04
2022-11-09T07:07:52.662Z,958.16
2022-11-09T07:10:16.232Z,958.31
2022-11-09T07:15:53.564Z,958.27
2022-11-09T07:21:31.561Z,958.27
2022-11-09T07:27:09.086Z,958.25
2022-11-09T07:33:07.354Z,958.23
2022-11-09T07:38:12.555Z,958.25
2022-11-09T07:43:46.567Z,958.19
2022-11-09T07:49:18.334Z,958.18
2022-11-09T07:54:52.333Z,958.19
2022-11-09T08:00:23.756Z,958.21
2022-11-09T08:05:54.130Z,958.19
2022-11-09T08:11:25.570Z,958.21
2022-11-09T08:16:57.926Z,958.23
2022-11-09T08:22:29.798Z,958.23
2022-11-09T08:28:01.398Z,958.25
2022-11-09T08:33:33.239Z,958.27
2022-11-09T08:39:05.554Z,958.31
2022-11-09T08:44:37.418Z,958.35
2022-11-09T08:50:09.332Z,958.37
2022-11-09T08:55:43.792Z,958.43
2022-11-09T09:01:16.892Z,958.47
2022-11-09T09:06:45.344Z,958.53
2022-11-09T09:12:16.886Z,958.57
2022-11-09T09:17:49.360Z,958.57
2022-11-09T09:23:22.005Z,958.55
2022-11-09T09:28:53.852Z,958.55
2022-11-09T09:34:25.705Z,958.57
2022-11-09T09:39:58.038Z,958.61
2022-11-09T09:45:30.050Z,958.61
2022-11-09T09:51:02.211Z,958.63
2022-11-09T09:56:34.148Z,958.61
2022-11-09T10:02:06.492Z,958.57
2022-11-09T10:07:38.723Z,958.57
2022-11-09T10:13:10.715Z,958.55
2022-11-09T10:18:42.994Z,958.57
2022-11-09T10:24:15.152Z,958.59
2022-11-09T10:35:17.363Z,958.53
2022-11-09T10:40:49.782Z,958.49
2022-11-09T10:46:21.800Z,958.41
2022-11-09T10:51:54.124Z,958.33
2022-11-09T10:57:26.541Z,958.23
2022-11-09T11:02:58.666Z,958.18
2022-11-09T11:08:30.957Z,958.12
2022-11-09T11:14:02.913Z,958.08
2022-11-09T11:19:35.256Z,958.02
2022-11-09T11:30:37.037Z,957.92
2022-11-09T11:41:38.706Z,957.84
2022-11-09T11:47:10.614Z,957.86
2022-11-09T11:52:42.949Z,957.86
2022-11-09T11:58:15.093Z,957.82
2022-11-09T12:03:50.575Z,957.78
2022-11-09T12:09:19.636Z,957.72
2022-11-09T12:14:51.761Z,957.72
2022-11-09T12:20:23.625Z,957.69
2022-11-09T12:25:55.822Z,957.67
2022-11-09T12:31:28.410Z,957.63
2022-11-09T12:37:00.409Z,957.59
2022-11-09T12:42:32.834Z,957.57
2022-11-09T12:48:05.151Z,957.55
2022-11-09T12:53:37.484Z,957.53
2022-11-09T12:59:09.598Z,957.47
2022-11-09T13:04:41.460Z,957.41
2022-11-09T13:10:13.550Z,957.35
2022-11-09T13:15:45.220Z,957.35
2022-11-09T13:21:17.400Z,957.31
2022-11-09T13:26:49.718Z,957.27
2022-11-09T13:32:21.923Z,957.25
2022-11-09T13:37:53.626Z,957.23
2022-11-09T13:43:25.764Z,957.23
2022-11-09T13:48:57.893Z,957.23
2022-11-09T13:54:29.756Z,957.23
2022-11-09T14:00:01.752Z,957.19
2022-11-09T14:05:33.615Z,957.23
2022-11-09T14:11:05.737Z,957.25
2022-11-09T14:16:37.713Z,957.27
2022-11-09T14:22:09.972Z,957.33
2022-11-09T14:27:41.889Z,957.31
2022-11-09T14:33:13.859Z,957.35
2022-11-09T14:38:46.014Z,957.35
2022-11-09T14:44:18.321Z,957.35
2022-11-09T14:49:51.091Z,957.37
2022-11-09T14:55:23.473Z,957.39
2022-11-09T15:00:55.744Z,957.39
2022-11-09T15:06:27.600Z,957.37
2022-11-09T15:11:59.406Z,957.41
2022-11-09T15:17:31.405Z,957.41
2022-11-09T15:23:03.415Z,957.43
2022-11-09T15:28:35.402Z,957.49
2022-11-09T15:34:07.208Z,957.49
2022-11-09T15:39:38.736Z,957.51
2022-11-09T15:45:10.892Z,957.55
2022-11-09T15:50:42.909Z,957.59
2022-11-09T15:56:15.256Z,957.67
2022-11-09T16:01:47.094Z,957.69
2022-11-09T16:07:19.227Z,957.74
2022-11-09T16:12:51.444Z,957.78
2022-11-09T16:18:26.107Z,957.86
2022-11-09T16:23:58.661Z,957.92
2022-11-09T16:40:27.851Z,958.10
2022-11-09T16:46:00.037Z,958.16
2022-11-09T16:51:32.241Z,958.21
2022-11-09T16:57:04.407Z,958.31
2022-11-09T17:02:36.608Z,958.41
2022-11-09T17:08:08.788Z,958.47
2022-11-09T17:13:40.697Z,958.59
2022-11-09T17:19:12.774Z,958.70
2022-11-09T17:24:45.171Z,958.80
2022-11-09T17:30:18.042Z,958.94
2022-11-09T17:35:50.176Z,959.04
2022-11-09T17:41:22.214Z,959.19
2022-11-09T17:46:54.327Z,959.21
2022-11-09T17:52:26.705Z,959.29
2022-11-09T17:57:58.938Z,959.37
2022-11-09T18:03:31.338Z,959.43
2022-11-09T18:09:39.153Z,959.49
2022-11-09T18:14:35.274Z,959.51
2022-11-09T18:20:06.749Z,959.59
2022-11-09T18:25:38.732Z,959.57
2022-11-09T18:31:10.582Z,959.59
2022-11-09T18:36:42.337Z,959.61
2022-11-09T18:42:14.229Z,959.65
2022-11-09T18:47:46.385Z,959.65
2022-11-09T18:53:18.448Z,959.70
2022-11-09T18:58:50.439Z,959.72
2022-11-09T19:04:22.249Z,959.72
2022-11-09T19:09:56.675Z,959.78
2022-11-09T19:20:55.880Z,959.92
2022-11-09T19:26:28.218Z,959.94
2022-11-09T19:32:00.678Z,959.98
2022-11-09T19:37:32.931Z,960.06
2022-11-09T19:43:04.953Z,960.12
2022-11-09T19:48:36.757Z,960.20
2022-11-09T19:54:09.236Z,960.18
2022-11-09T19:59:41.349Z,960.23
2022-11-09T20:05:13.997Z,960.27
2022-11-09T20:10:45.819Z,960.29
2022-11-09T20:16:17.825Z,960.33
2022-11-09T20:21:51.352Z,960.37
2022-11-09T20:24:02.936Z,960.39
2022-11-09T20:29:34.768Z,960.41
2022-11-09T20:35:06.376Z,960.45
2022-11-09T20:40:38.534Z,960.49
2022-11-09T20:46:10.545Z,960.53
2022-11-09T20:51:42.732Z,960.57
2022-11-09T20:57:15.334Z,960.61
2022-11-09T21:02:46.815Z,960.67
2022-11-09T21:08:19.023Z,960.72
2022-11-09T21:13:50.693Z,960.78
2022-11-09T21:19:22.517Z,960.82
2022-11-09T21:24:54.212Z,960.88
2022-11-09T21:30:26.087Z,960.92
2022-11-09T21:35:58.295Z,960.96
2022-11-09T21:41:29.896Z,961.02
2022-11-09T21:47:01.954Z,961.10
2022-11-09T21:52:33.777Z,961.15
2022-11-09T21:58:05.799Z,961.23
2022-11-09T22:03:37.787Z,961.31
2022-11-09T22:09:09.285Z,961.37
2022-11-09T22:14:41.192Z,961.39
2022-11-09T22:20:12.764Z,961.47
2022-11-09T22:25:47.947Z,961.53
2022-11-09T22:31:16.507Z,961.57
2022-11-09T22:36:48.115Z,961.69
2022-11-09T22:42:20.371Z,961.76
2022-11-09T22:47:52.418Z,961.84
2022-11-09T22:53:24.366Z,961.92
2022-11-09T22:58:56.668Z,961.96
2022-11-09T23:04:28.884Z,961.98
2022-11-09T23:10:00.724Z,962.04
2022-11-09T23:15:33.400Z,962.04
2022-11-09T23:21:05.437Z,962.08
2022-11-09T23:26:37.155Z,962.12
2022-11-09T23:32:08.831Z,962.14
2022-11-09T23:37:40.521Z,962.20
2022-11-09T23:43:12.411Z,962.20
2022-11-09T23:48:44.057Z,962.23
2022-11-09T23:54:15.845Z,962.27
2022-11-09T23:59:47.548Z,962.29
